Time;durP1;ratioP1;P1;durP2;ratioP2;P2;SDS_P1;SDS_P2;PMS_P1;PMS_P2;Temp;Humidity;BMP_temperature;BMP_pressure;BME280_temperature;BME280_humidity;BME280_pressure;Samples;Min_cycle;Max_cycle;Signal;HPM_P1;HPM_P2
2022/12/11 00:02:27;;;;;;;;;24.75;22.00;;;;;;;;5059299;28;51118;-54
2022/12/11 00:05:12;;;;;;;;;24.00;21.50;;;;;;;;5059117;28;51084;-57
2022/12/11 00:07:56;;;;;;;;;27.00;24.50;;;;;;;;5059141;28;51375;-56
2022/12/11 00:10:50;;;;;;;;;28.25;25.25;;;;;;;;5059159;28;51543;-56
2022/12/11 00:13:34;;;;;;;;;26.50;22.75;;;;;;;;5059075;28;51176;-54
2022/12/11 00:16:19;;;;;;;;;26.50;22.50;;;;;;;;5058875;28;51089;-57
2022/12/11 00:19:04;;;;;;;;;27.75;24.25;;;;;;;;5059117;28;51080;-56
2022/12/11 00:21:48;;;;;;;;;24.00;22.00;;;;;;;;5058913;28;51350;-55
2022/12/11 00:24:33;;;;;;;;;29.00;24.50;;;;;;;;5058710;28;50997;-57
2022/12/11 00:27:17;;;;;;;;;27.25;24.75;;;;;;;;5059545;28;51095;-56
2022/12/11 00:30:02;;;;;;;;;28.25;23.00;;;;;;;;5052122;28;51111;-56
2022/12/11 00:32:46;;;;;;;;;29.25;27.25;;;;;;;;5065346;27;51076;-56
2022/12/11 00:35:31;;;;;;;;;28.25;25.25;;;;;;;;5082644;27;51164;-54
2022/12/11 00:38:16;;;;;;;;;26.75;24.75;;;;;;;;5083039;27;51099;-53
2022/12/11 00:41:01;;;;;;;;;25.25;22.75;;;;;;;;5082629;27;51408;-55
2022/12/11 00:43:46;;;;;;;;;23.25;23.25;;;;;;;;5082584;27;51195;-54
2022/12/11 00:46:30;;;;;;;;;23.50;22.50;;;;;;;;5082492;27;51539;-56
2022/12/11 00:49:14;;;;;;;;;27.75;24.50;;;;;;;;5082576;27;51086;-54
2022/12/11 00:51:59;;;;;;;;;26.25;22.25;;;;;;;;5082794;27;51446;-56
2022/12/11 00:54:43;;;;;;;;;40.25;31.25;;;;;;;;5060269;27;51579;-57
2022/12/11 00:57:28;;;;;;;;;40.75;32.00;;;;;;;;5062170;28;51124;-55
2022/12/11 01:00:12;;;;;;;;;36.25;31.50;;;;;;;;5081350;27;51124;-57
2022/12/11 01:02:57;;;;;;;;;38.00;31.75;;;;;;;;5062030;28;51108;-54
2022/12/11 01:05:41;;;;;;;;;29.50;26.00;;;;;;;;5061568;28;51458;-54
2022/12/11 01:08:25;;;;;;;;;25.50;24.00;;;;;;;;5061257;28;50980;-58
2022/12/11 01:11:12;;;;;;;;;26.00;23.00;;;;;;;;5061866;28;51526;-57
2022/12/11 01:13:56;;;;;;;;;29.25;23.75;;;;;;;;5061667;28;51568;-55
2022/12/11 01:16:40;;;;;;;;;27.00;22.75;;;;;;;;5061948;28;51066;-57
2022/12/11 01:19:24;;;;;;;;;30.75;24.75;;;;;;;;5061519;28;51224;-52
2022/12/11 01:22:09;;;;;;;;;31.50;25.75;;;;;;;;5061728;28;51258;-55
2022/12/11 01:24:53;;;;;;;;;31.00;25.25;;;;;;;;5061374;28;51363;-55
2022/12/11 01:27:38;;;;;;;;;28.25;25.75;;;;;;;;5061799;28;51021;-56
2022/12/11 01:30:24;;;;;;;;;25.75;22.50;;;;;;;;5061410;28;51475;-54
2022/12/11 01:33:09;;;;;;;;;27.00;24.50;;;;;;;;5061202;28;51245;-55
2022/12/11 01:35:53;;;;;;;;;29.75;27.50;;;;;;;;5061301;28;51052;-55
2022/12/11 01:38:37;;;;;;;;;29.75;24.00;;;;;;;;5061203;28;51430;-56
2022/12/11 01:41:22;;;;;;;;;32.75;25.75;;;;;;;;5061546;28;51100;-53
2022/12/11 01:44:26;;;;;;;;;29.00;26.00;;;;;;;;5060966;28;51019;-55
2022/12/11 01:47:11;;;;;;;;;25.75;23.50;;;;;;;;5061052;28;51147;-56
2022/12/11 01:49:55;;;;;;;;;32.50;23.00;;;;;;;;5061075;28;51229;-58
2022/12/11 01:52:40;;;;;;;;;24.50;23.00;;;;;;;;5061173;28;51136;-56
2022/12/11 01:55:25;;;;;;;;;26.00;22.50;;;;;;;;5060844;28;51454;-54
2022/12/11 01:58:10;;;;;;;;;30.00;24.25;;;;;;;;5060638;28;51123;-54
2022/12/11 02:00:55;;;;;;;;;27.25;25.25;;;;;;;;5060965;28;51396;-54
2022/12/11 02:03:40;;;;;;;;;31.50;24.75;;;;;;;;5054651;28;51090;-54
2022/12/11 02:06:32;;;;;;;;;29.50;27.25;;;;;;;;5060954;28;51055;-54
2022/12/11 02:09:19;;;;;;;;;25.00;22.50;;;;;;;;5060227;28;51352;-55
2022/12/11 02:12:03;;;;;;;;;33.25;26.25;;;;;;;;5060467;28;51137;-56
2022/12/11 02:15:07;;;;;;;;;31.50;27.75;;;;;;;;5060562;28;51052;-55
2022/12/11 02:17:53;;;;;;;;;29.75;24.75;;;;;;;;5060821;28;51027;-55
2022/12/11 02:20:42;;;;;;;;;24.00;20.75;;;;;;;;5060378;28;51067;-54
2022/12/11 02:23:26;;;;;;;;;28.25;23.75;;;;;;;;5060243;28;51301;-55
2022/12/11 02:26:21;;;;;;;;;33.25;27.00;;;;;;;;5060370;28;51705;-55
2022/12/11 02:29:08;;;;;;;;;28.00;24.00;;;;;;;;5060158;28;51187;-58
2022/12/11 02:32:00;;;;;;;;;32.25;24.25;;;;;;;;5055246;28;51217;-54
2022/12/11 02:34:48;;;;;;;;;25.75;24.25;;;;;;;;5060175;28;51217;-57
2022/12/11 02:37:34;;;;;;;;;27.50;25.25;;;;;;;;5060053;28;51269;-54
2022/12/11 02:40:21;;;;;;;;;27.50;24.00;;;;;;;;5059724;28;51191;-56
2022/12/11 02:43:07;;;;;;;;;26.75;25.25;;;;;;;;5060423;28;51057;-56
2022/12/11 02:45:52;;;;;;;;;30.00;24.50;;;;;;;;5060007;28;51114;-57
2022/12/11 02:48:38;;;;;;;;;27.25;24.00;;;;;;;;5059911;28;51092;-54
2022/12/11 02:51:30;;;;;;;;;31.50;24.25;;;;;;;;5059949;28;51687;-54
2022/12/11 02:54:17;;;;;;;;;33.75;29.75;;;;;;;;5059173;28;51142;-57
2022/12/11 02:57:06;;;;;;;;;37.75;30.75;;;;;;;;5060182;28;51079;-55
2022/12/11 02:59:50;;;;;;;;;37.25;32.00;;;;;;;;5059758;28;51560;-55
2022/12/11 03:02:35;;;;;;;;;39.25;32.75;;;;;;;;5059752;28;51654;-56
2022/12/11 03:05:19;;;;;;;;;41.00;34.75;;;;;;;;5059490;28;51740;-55
2022/12/11 03:08:04;;;;;;;;;47.00;36.25;;;;;;;;5060132;28;51172;-55
2022/12/11 03:10:48;;;;;;;;;50.50;38.50;;;;;;;;5059544;28;51413;-56
2022/12/11 03:13:33;;;;;;;;;46.50;36.50;;;;;;;;5059374;28;51268;-55
2022/12/11 03:16:34;;;;;;;;;46.25;37.25;;;;;;;;5059597;28;51164;-54
2022/12/11 03:19:26;;;;;;;;;47.50;38.25;;;;;;;;5059285;28;51108;-54
2022/12/11 03:22:16;;;;;;;;;45.50;37.25;;;;;;;;5059923;28;51107;-57
2022/12/11 03:25:02;;;;;;;;;47.25;36.50;;;;;;;;5059532;28;51097;-57
2022/12/11 03:27:47;;;;;;;;;47.50;37.00;;;;;;;;5059664;28;51092;-55
2022/12/11 03:30:35;;;;;;;;;47.25;37.75;;;;;;;;5059128;28;51173;-55
2022/12/11 03:33:42;;;;;;;;;43.25;34.75;;;;;;;;5059862;28;51086;-56
2022/12/11 03:36:31;;;;;;;;;45.00;38.00;;;;;;;;5059175;28;51099;-57
2022/12/11 03:39:21;;;;;;;;;46.50;37.75;;;;;;;;5059410;28;51126;-54
2022/12/11 03:42:09;;;;;;;;;45.75;36.25;;;;;;;;5059341;28;51570;-54
2022/12/11 03:44:54;;;;;;;;;43.25;36.00;;;;;;;;5059140;28;51040;-55
2022/12/11 03:47:40;;;;;;;;;45.00;35.75;;;;;;;;5059441;28;51055;-54
2022/12/11 03:50:27;;;;;;;;;43.00;35.75;;;;;;;;5059214;28;51491;-57
2022/12/11 03:53:11;;;;;;;;;45.75;33.75;;;;;;;;5053926;28;51084;-54
2022/12/11 03:55:57;;;;;;;;;39.25;33.25;;;;;;;;5059213;28;51074;-56
2022/12/11 03:58:41;;;;;;;;;40.50;32.25;;;;;;;;5059236;28;51109;-57
2022/12/11 04:01:25;;;;;;;;;45.25;35.50;;;;;;;;5059064;28;51526;-56
2022/12/11 04:04:10;;;;;;;;;45.00;36.75;;;;;;;;5059341;28;51240;-57
2022/12/11 04:06:54;;;;;;;;;47.00;34.25;;;;;;;;5062101;28;51613;-54
2022/12/11 04:09:39;;;;;;;;;43.25;35.75;;;;;;;;5062412;28;51004;-57
2022/12/11 04:12:23;;;;;;;;;44.25;33.50;;;;;;;;5063206;28;51051;-56
2022/12/11 04:15:08;;;;;;;;;42.25;35.75;;;;;;;;5062802;28;51070;-56
2022/12/11 04:24:16;;;;;;;;;46.50;37.75;;;;;;;;5062920;28;50996;-56
2022/12/11 04:27:00;;;;;;;;;44.25;35.75;;;;;;;;5062625;28;51650;-56
2022/12/11 04:29:44;;;;;;;;;46.00;35.00;;;;;;;;5062481;28;51007;-57
2022/12/11 04:32:29;;;;;;;;;47.50;36.75;;;;;;;;5062721;28;51213;-54
2022/12/11 04:35:14;;;;;;;;;41.25;33.25;;;;;;;;5062577;28;51023;-52
2022/12/11 04:37:58;;;;;;;;;45.00;35.75;;;;;;;;5062556;28;51197;-55
2022/12/11 04:40:43;;;;;;;;;40.25;32.25;;;;;;;;5062078;28;50999;-56
2022/12/11 04:43:27;;;;;;;;;49.00;36.50;;;;;;;;5062414;28;51683;-54
2022/12/11 04:46:16;;;;;;;;;44.50;37.00;;;;;;;;5062158;28;51189;-56
2022/12/11 04:49:01;;;;;;;;;43.25;33.50;;;;;;;;5062456;28;51159;-53
2022/12/11 04:51:45;;;;;;;;;37.75;34.00;;;;;;;;5061784;28;51078;-54
2022/12/11 04:54:30;;;;;;;;;45.25;36.00;;;;;;;;5062307;28;51166;-56
2022/12/11 04:57:15;;;;;;;;;41.50;33.75;;;;;;;;5062261;28;51057;-56
2022/12/11 05:00:00;;;;;;;;;43.50;32.75;;;;;;;;5061726;28;51180;-56
2022/12/11 05:02:45;;;;;;;;;46.25;37.25;;;;;;;;5062218;28;51056;-54
2022/12/11 05:05:30;;;;;;;;;43.00;36.25;;;;;;;;5061910;28;51455;-55
2022/12/11 05:08:14;;;;;;;;;48.75;38.75;;;;;;;;5054034;28;51142;-55
2022/12/11 05:10:59;;;;;;;;;49.50;40.00;;;;;;;;5061295;28;51058;-55
2022/12/11 05:13:43;;;;;;;;;43.75;36.75;;;;;;;;5062233;28;51148;-57
2022/12/11 05:16:28;;;;;;;;;42.00;33.75;;;;;;;;5061130;28;51130;-54
2022/12/11 05:19:12;;;;;;;;;44.50;34.75;;;;;;;;5061474;28;51260;-56
2022/12/11 05:21:56;;;;;;;;;44.75;36.75;;;;;;;;5061523;28;51655;-53
2022/12/11 05:24:41;;;;;;;;;42.75;36.00;;;;;;;;5061437;28;51066;-54
2022/12/11 05:27:26;;;;;;;;;46.50;37.25;;;;;;;;5061944;28;51066;-55
2022/12/11 05:30:10;;;;;;;;;48.25;38.00;;;;;;;;5061168;28;51169;-55
2022/12/11 05:32:54;;;;;;;;;49.00;37.75;;;;;;;;5061391;28;51471;-53
2022/12/11 05:35:45;;;;;;;;;50.75;41.25;;;;;;;;5061327;28;51041;-57
2022/12/11 05:38:29;;;;;;;;;56.50;45.25;;;;;;;;5061536;28;50995;-56
2022/12/11 05:41:16;;;;;;;;;48.50;38.75;;;;;;;;5061006;28;51067;-55
2022/12/11 05:44:00;;;;;;;;;51.25;39.75;;;;;;;;5061048;28;51136;-54
2022/12/11 05:46:44;;;;;;;;;52.25;41.50;;;;;;;;5061224;28;51544;-57
2022/12/11 05:49:29;;;;;;;;;61.00;45.50;;;;;;;;5061012;28;51165;-54
2022/12/11 05:52:15;;;;;;;;;58.00;47.00;;;;;;;;5061022;28;51102;-56
2022/12/11 05:55:00;;;;;;;;;56.75;45.00;;;;;;;;5060814;28;51053;-55
2022/12/11 05:57:44;;;;;;;;;58.75;45.00;;;;;;;;5060955;28;51038;-56
2022/12/11 06:00:28;;;;;;;;;55.50;45.75;;;;;;;;5060707;28;51063;-55
2022/12/11 06:03:13;;;;;;;;;60.00;46.00;;;;;;;;5060967;28;51093;-53
2022/12/11 06:06:00;;;;;;;;;60.75;44.50;;;;;;;;5060594;28;51237;-55
2022/12/11 06:08:44;;;;;;;;;55.25;44.25;;;;;;;;5060657;28;51079;-52
2022/12/11 06:11:30;;;;;;;;;53.75;42.00;;;;;;;;5060807;28;51150;-54
2022/12/11 06:14:14;;;;;;;;;52.25;43.50;;;;;;;;5060335;28;51160;-57
2022/12/11 06:16:58;;;;;;;;;50.00;42.50;;;;;;;;5060750;28;50996;-54
2022/12/11 06:19:43;;;;;;;;;57.75;44.75;;;;;;;;5060349;28;51004;-56
2022/12/11 06:22:27;;;;;;;;;59.00;46.75;;;;;;;;5060345;28;51559;-57
2022/12/11 06:25:12;;;;;;;;;57.50;44.25;;;;;;;;5060038;28;51083;-56
2022/12/11 06:27:57;;;;;;;;;60.50;47.00;;;;;;;;5059876;28;51030;-56
2022/12/11 06:30:41;;;;;;;;;59.25;45.50;;;;;;;;5060200;28;51060;-56
2022/12/11 06:33:26;;;;;;;;;61.50;46.50;;;;;;;;5060091;28;51398;-55
2022/12/11 06:36:12;;;;;;;;;58.50;45.25;;;;;;;;5060149;28;51717;-56
2022/12/11 06:38:56;;;;;;;;;60.50;46.25;;;;;;;;5059942;28;51187;-57
2022/12/11 06:41:40;;;;;;;;;61.75;46.50;;;;;;;;5060463;28;50997;-56
2022/12/11 06:44:25;;;;;;;;;54.00;42.00;;;;;;;;5059817;28;51972;-54
2022/12/11 06:47:09;;;;;;;;;54.75;44.00;;;;;;;;5060246;28;51180;-57
2022/12/11 06:49:53;;;;;;;;;43.00;32.00;;;;;;;;5059992;28;51176;-54
2022/12/11 06:52:38;;;;;;;;;62.25;46.25;;;;;;;;5060297;28;51067;-56
2022/12/11 06:55:22;;;;;;;;;60.75;48.25;;;;;;;;5059623;27;51097;-56
2022/12/11 06:58:07;;;;;;;;;62.25;46.50;;;;;;;;5075841;27;51048;-55
2022/12/11 07:00:51;;;;;;;;;58.00;46.00;;;;;;;;5080388;27;51644;-54
2022/12/11 07:03:36;;;;;;;;;58.50;46.00;;;;;;;;5079961;27;51083;-55
2022/12/11 07:06:21;;;;;;;;;60.75;47.50;;;;;;;;5080413;27;51023;-55
2022/12/11 07:09:05;;;;;;;;;57.00;46.00;;;;;;;;5079765;27;51490;-56
2022/12/11 07:11:51;;;;;;;;;57.25;46.50;;;;;;;;5080075;27;51625;-55
2022/12/11 07:14:35;;;;;;;;;58.75;44.75;;;;;;;;5079689;27;51167;-55
2022/12/11 07:17:20;;;;;;;;;62.75;48.00;;;;;;;;5080006;27;51102;-56
2022/12/11 07:20:04;;;;;;;;;59.75;46.25;;;;;;;;5079647;28;51620;-53
2022/12/11 07:22:48;;;;;;;;;61.25;45.50;;;;;;;;5079859;28;51096;-55
2022/12/11 07:25:33;;;;;;;;;58.25;44.50;;;;;;;;5079710;28;51002;-57
2022/12/11 07:28:17;;;;;;;;;58.00;44.75;;;;;;;;5079721;28;51125;-56
2022/12/11 07:31:12;;;;;;;;;60.00;47.00;;;;;;;;5080071;28;51101;-56
2022/12/11 07:33:57;;;;;;;;;57.75;45.25;;;;;;;;5079686;28;51088;-53
2022/12/11 07:36:42;;;;;;;;;55.25;44.75;;;;;;;;5079833;28;51510;-54
2022/12/11 07:39:26;;;;;;;;;64.00;49.00;;;;;;;;5080308;27;51131;-56
2022/12/11 07:42:11;;;;;;;;;64.50;49.00;;;;;;;;5084352;27;50985;-57
2022/12/11 07:44:55;;;;;;;;;55.25;44.50;;;;;;;;5083497;27;51097;-55
2022/12/11 07:47:40;;;;;;;;;61.50;48.25;;;;;;;;5066500;27;51071;-54
2022/12/11 07:50:24;;;;;;;;;57.75;43.75;;;;;;;;5063473;28;51001;-57
2022/12/11 07:53:08;;;;;;;;;55.50;42.25;;;;;;;;5063225;28;51269;-55
2022/12/11 07:55:53;;;;;;;;;54.25;44.25;;;;;;;;5063312;28;51230;-56
2022/12/11 07:58:37;;;;;;;;;52.50;41.75;;;;;;;;5063195;28;51082;-55
2022/12/11 08:01:23;;;;;;;;;52.00;40.00;;;;;;;;5063074;28;51406;-56
2022/12/11 08:04:08;;;;;;;;;53.00;39.25;;;;;;;;5063019;28;51136;-55
2022/12/11 08:06:52;;;;;;;;;51.75;41.00;;;;;;;;5063098;28;51172;-58
2022/12/11 08:09:37;;;;;;;;;51.50;40.00;;;;;;;;5062575;28;51210;-55
2022/12/11 08:12:21;;;;;;;;;50.50;40.25;;;;;;;;5063004;28;50984;-57
2022/12/11 08:15:06;;;;;;;;;48.75;40.00;;;;;;;;5062842;28;51237;-56
2022/12/11 08:17:50;;;;;;;;;52.00;39.25;;;;;;;;5062297;28;51086;-56
2022/12/11 08:20:36;;;;;;;;;49.75;37.25;;;;;;;;5062973;28;51110;-56
2022/12/11 08:23:20;;;;;;;;;47.75;37.25;;;;;;;;5062831;28;51123;-56
2022/12/11 08:26:05;;;;;;;;;47.75;37.50;;;;;;;;5062711;28;51519;-57
2022/12/11 08:28:49;;;;;;;;;48.00;38.25;;;;;;;;5062383;28;51082;-57
2022/12/11 08:31:34;;;;;;;;;51.00;40.00;;;;;;;;5062999;28;51085;-58
2022/12/11 08:34:18;;;;;;;;;44.50;36.25;;;;;;;;5055269;28;51449;-57
2022/12/11 08:37:03;;;;;;;;;44.50;34.25;;;;;;;;5062372;28;51337;-55
2022/12/11 08:39:47;;;;;;;;;45.50;37.00;;;;;;;;5062462;28;51013;-55
2022/12/11 08:42:31;;;;;;;;;45.25;35.75;;;;;;;;5062318;28;51529;-55
2022/12/11 08:45:16;;;;;;;;;44.75;36.50;;;;;;;;5062708;28;51086;-55
2022/12/11 08:48:00;;;;;;;;;42.25;34.75;;;;;;;;5062196;28;51131;-55
2022/12/11 08:50:44;;;;;;;;;38.00;33.00;;;;;;;;5062069;28;51165;-56
2022/12/11 08:53:29;;;;;;;;;38.25;31.75;;;;;;;;5062028;28;51032;-55
2022/12/11 08:56:15;;;;;;;;;43.50;34.00;;;;;;;;5054373;28;51132;-55
2022/12/11 08:59:00;;;;;;;;;48.25;35.25;;;;;;;;5061867;28;51374;-56
2022/12/11 09:01:44;;;;;;;;;43.00;34.25;;;;;;;;5062003;28;51149;-56
2022/12/11 09:04:28;;;;;;;;;38.75;32.75;;;;;;;;5055939;28;51096;-56
2022/12/11 09:07:12;;;;;;;;;40.75;32.75;;;;;;;;5061493;28;51177;-55
2022/12/11 09:09:57;;;;;;;;;39.00;31.75;;;;;;;;5061329;28;51279;-55
2022/12/11 09:12:41;;;;;;;;;41.25;31.75;;;;;;;;5061839;28;51062;-55
2022/12/11 09:15:26;;;;;;;;;39.50;32.75;;;;;;;;5061873;28;51031;-56
2022/12/11 09:18:10;;;;;;;;;38.50;32.25;;;;;;;;5061527;28;51083;-56
2022/12/11 09:20:58;;;;;;;;;40.75;33.50;;;;;;;;5061926;28;51124;-56
2022/12/11 09:23:43;;;;;;;;;36.50;31.50;;;;;;;;5061540;28;51638;-56
2022/12/11 09:26:29;;;;;;;;;37.50;33.25;;;;;;;;5061626;28;51719;-56
2022/12/11 09:29:13;;;;;;;;;42.00;33.25;;;;;;;;5061472;28;51584;-56
2022/12/11 09:31:57;;;;;;;;;41.75;35.00;;;;;;;;5061382;28;51156;-56
2022/12/11 09:34:42;;;;;;;;;41.00;32.75;;;;;;;;5061771;28;51086;-56
2022/12/11 09:37:26;;;;;;;;;36.50;31.00;;;;;;;;5061200;28;51133;-55
2022/12/11 09:40:11;;;;;;;;;37.50;31.75;;;;;;;;5061202;28;51528;-56
2022/12/11 09:43:00;;;;;;;;;48.00;37.50;;;;;;;;5061165;28;51184;-55
2022/12/11 09:45:44;;;;;;;;;39.75;32.50;;;;;;;;5055271;28;51047;-56
2022/12/11 09:48:31;;;;;;;;;34.00;31.00;;;;;;;;5060843;28;51315;-57
2022/12/11 09:51:17;;;;;;;;;37.50;31.50;;;;;;;;5061001;28;51162;-56
2022/12/11 09:54:02;;;;;;;;;36.00;31.00;;;;;;;;5061140;28;51621;-56
2022/12/11 09:56:51;;;;;;;;;41.50;32.25;;;;;;;;5061200;28;51358;-57
2022/12/11 09:59:38;;;;;;;;;38.75;31.50;;;;;;;;5060797;28;51123;-57
2022/12/11 10:02:37;;;;;;;;;39.00;31.75;;;;;;;;5060771;28;51049;-55
2022/12/11 10:05:30;;;;;;;;;42.25;33.75;;;;;;;;5060856;28;51716;-56
2022/12/11 10:08:20;;;;;;;;;35.75;30.25;;;;;;;;5060480;28;51054;-57
2022/12/11 10:11:23;;;;;;;;;35.50;29.25;;;;;;;;5060827;28;51107;-57
2022/12/11 10:14:08;;;;;;;;;40.00;31.50;;;;;;;;5060363;28;51342;-55
2022/12/11 10:16:56;;;;;;;;;40.00;31.75;;;;;;;;5060640;28;51213;-56
2022/12/11 10:19:42;;;;;;;;;45.00;34.50;;;;;;;;5079908;27;51515;-57
2022/12/11 10:22:29;;;;;;;;;32.50;29.75;;;;;;;;5060517;28;50988;-56
2022/12/11 10:25:19;;;;;;;;;40.00;31.50;;;;;;;;5060049;28;51089;-56
2022/12/11 10:28:17;;;;;;;;;34.50;31.25;;;;;;;;5060495;28;51076;-55
2022/12/11 10:31:09;;;;;;;;;33.25;28.75;;;;;;;;5060578;28;51173;-57
2022/12/11 10:34:10;;;;;;;;;35.00;30.00;;;;;;;;5060326;28;51011;-56
2022/12/11 10:36:55;;;;;;;;;36.25;27.75;;;;;;;;5060671;28;51132;-56
2022/12/11 10:39:39;;;;;;;;;30.25;27.75;;;;;;;;5060010;28;51513;-56
2022/12/11 10:42:23;;;;;;;;;33.25;29.00;;;;;;;;5060070;28;51134;-56
2022/12/11 10:45:15;;;;;;;;;32.00;29.00;;;;;;;;5060221;28;51115;-56
2022/12/11 10:48:06;;;;;;;;;30.25;24.25;;;;;;;;5054600;28;51107;-56
2022/12/11 10:50:58;;;;;;;;;29.50;26.00;;;;;;;;5059997;28;51570;-57
2022/12/11 10:53:48;;;;;;;;;35.25;28.50;;;;;;;;5060163;28;51614;-56
2022/12/11 10:56:34;;;;;;;;;33.50;28.00;;;;;;;;5059770;28;51616;-56
2022/12/11 10:59:23;;;;;;;;;36.75;27.75;;;;;;;;5059539;28;51237;-57
2022/12/11 11:02:18;;;;;;;;;26.25;24.25;;;;;;;;5060195;28;51168;-57
2022/12/11 11:05:17;;;;;;;;;30.75;23.25;;;;;;;;5054445;28;51030;-57
2022/12/11 11:08:17;;;;;;;;;32.00;26.75;;;;;;;;5054207;28;51204;-57
2022/12/11 11:11:02;;;;;;;;;34.50;24.75;;;;;;;;5059426;28;51457;-57
2022/12/11 11:13:46;;;;;;;;;28.25;24.25;;;;;;;;5059683;28;51408;-56
2022/12/11 11:16:31;;;;;;;;;27.50;25.50;;;;;;;;5059320;28;51444;-57
2022/12/11 11:19:35;;;;;;;;;29.00;26.75;;;;;;;;5075943;27;51185;-56
2022/12/11 11:22:20;;;;;;;;;35.25;27.00;;;;;;;;5079893;27;51473;-56
2022/12/11 11:25:04;;;;;;;;;29.50;27.00;;;;;;;;5079961;28;51406;-56
2022/12/11 11:28:02;;;;;;;;;31.75;26.00;;;;;;;;5080251;28;51167;-55
2022/12/11 11:31:13;;;;;;;;;27.00;25.75;;;;;;;;5079762;28;51495;-57
2022/12/11 11:34:02;;;;;;;;;32.25;27.00;;;;;;;;5079865;28;51110;-57
2022/12/11 11:36:55;;;;;;;;;27.00;24.00;;;;;;;;5068073;28;52912;-56
2022/12/11 11:39:44;;;;;;;;;28.25;26.25;;;;;;;;5059409;28;51170;-56
2022/12/11 11:42:44;;;;;;;;;36.00;29.00;;;;;;;;5059259;28;51453;-57
2022/12/11 11:45:36;;;;;;;;;31.00;26.75;;;;;;;;5059400;28;51087;-56
2022/12/11 11:48:29;;;;;;;;;31.25;25.75;;;;;;;;5059470;28;51516;-55
2022/12/11 11:51:31;;;;;;;;;22.75;22.50;;;;;;;;5059368;28;51165;-57
2022/12/11 11:54:33;;;;;;;;;26.25;25.50;;;;;;;;5059725;28;51147;-56
2022/12/11 11:57:33;;;;;;;;;28.25;23.75;;;;;;;;5059319;28;51051;-56
2022/12/11 12:00:20;;;;;;;;;31.25;28.25;;;;;;;;5059237;28;51085;-57
2022/12/11 12:03:15;;;;;;;;;29.75;24.75;;;;;;;;5059337;28;51440;-56
2022/12/11 12:06:18;;;;;;;;;32.00;26.75;;;;;;;;5059599;28;51122;-55
2022/12/11 12:09:14;;;;;;;;;32.25;28.00;;;;;;;;5059191;28;51579;-54
2022/12/11 12:12:07;;;;;;;;;29.75;26.00;;;;;;;;5059252;28;51122;-56
2022/12/11 12:15:07;;;;;;;;;28.75;26.50;;;;;;;;5059285;28;51073;-55
2022/12/11 12:17:51;;;;;;;;;33.25;29.75;;;;;;;;5058775;28;51142;-53
2022/12/11 12:20:35;;;;;;;;;33.00;27.75;;;;;;;;5059176;28;51126;-56
2022/12/11 12:23:19;;;;;;;;;22.50;22.00;;;;;;;;5058953;28;51127;-55
2022/12/11 12:26:16;;;;;;;;;30.75;28.75;;;;;;;;5052288;28;51094;-54
2022/12/11 12:29:11;;;;;;;;;33.75;29.50;;;;;;;;5075713;27;51476;-56
2022/12/11 12:32:08;;;;;;;;;36.00;28.75;;;;;;;;5083114;27;51070;-56
2022/12/11 12:35:11;;;;;;;;;34.75;28.50;;;;;;;;5082747;27;51273;-54
2022/12/11 12:38:06;;;;;;;;;28.50;26.50;;;;;;;;5082743;27;51141;-55
2022/12/11 12:40:57;;;;;;;;;28.25;27.25;;;;;;;;5082777;27;51613;-56
2022/12/11 12:43:42;;;;;;;;;24.25;21.75;;;;;;;;5082445;27;51084;-55
2022/12/11 12:46:45;;;;;;;;;33.50;27.00;;;;;;;;5083063;27;51024;-55
2022/12/11 12:49:34;;;;;;;;;28.00;26.00;;;;;;;;5082650;27;51212;-54
2022/12/11 12:52:22;;;;;;;;;28.25;24.75;;;;;;;;5082584;27;51086;-55
2022/12/11 12:55:12;;;;;;;;;32.00;27.75;;;;;;;;5082327;27;51026;-54
2022/12/11 12:57:59;;;;;;;;;32.50;27.75;;;;;;;;5082644;27;51084;-55
2022/12/11 13:00:51;;;;;;;;;30.50;25.25;;;;;;;;5019191;28;51274;-55
2022/12/11 13:03:37;;;;;;;;;30.00;25.75;;;;;;;;5019407;28;51084;-56
2022/12/11 13:06:38;;;;;;;;;26.50;25.50;;;;;;;;5019409;28;51390;-54
2022/12/11 13:09:24;;;;;;;;;28.00;25.25;;;;;;;;5004896;28;51150;-56
2022/12/11 13:12:12;;;;;;;;;33.75;26.25;;;;;;;;5019437;28;51061;-55
2022/12/11 13:14:57;;;;;;;;;31.00;24.75;;;;;;;;5019057;28;51151;-55
2022/12/11 13:17:41;;;;;;;;;25.75;21.50;;;;;;;;5019303;28;51157;-55
2022/12/11 13:20:27;;;;;;;;;30.00;26.50;;;;;;;;5019206;28;51162;-56
2022/12/11 13:23:15;;;;;;;;;25.00;21.25;;;;;;;;4999768;28;51011;-55
2022/12/11 13:26:01;;;;;;;;;28.75;26.50;;;;;;;;4998954;28;51022;-54
2022/12/11 13:28:47;;;;;;;;;29.25;26.25;;;;;;;;4999318;28;51192;-56
2022/12/11 13:31:35;;;;;;;;;21.00;19.75;;;;;;;;4999434;28;51430;-55
2022/12/11 13:34:21;;;;;;;;;32.75;24.00;;;;;;;;4999065;28;51181;-54
2022/12/11 13:37:17;;;;;;;;;30.25;26.00;;;;;;;;5011386;28;51134;-51
2022/12/11 13:40:04;;;;;;;;;29.00;25.50;;;;;;;;5060823;28;51018;-55
2022/12/11 13:42:51;;;;;;;;;25.75;21.50;;;;;;;;5061457;28;51109;-53
2022/12/11 13:45:45;;;;;;;;;30.50;26.00;;;;;;;;5055895;28;51142;-55
2022/12/11 13:48:53;;;;;;;;;27.25;24.25;;;;;;;;5061649;28;51140;-56
2022/12/11 13:51:37;;;;;;;;;30.00;25.00;;;;;;;;5055779;28;51213;-56
2022/12/11 13:54:22;;;;;;;;;27.75;24.75;;;;;;;;5061126;28;50953;-54
2022/12/11 13:57:06;;;;;;;;;25.50;23.00;;;;;;;;5061167;28;51223;-55
2022/12/11 13:59:55;;;;;;;;;21.50;17.25;;;;;;;;5060676;28;51164;-55
2022/12/11 14:02:41;;;;;;;;;30.50;24.75;;;;;;;;5061318;28;51110;-53
2022/12/11 14:05:25;;;;;;;;;28.00;23.00;;;;;;;;5060799;28;51074;-55
2022/12/11 14:08:10;;;;;;;;;29.25;26.25;;;;;;;;5062876;27;51186;-55
2022/12/11 14:10:54;;;;;;;;;29.00;23.25;;;;;;;;5080434;27;51155;-54
2022/12/11 14:13:39;;;;;;;;;27.50;27.50;;;;;;;;5081661;27;51200;-55
2022/12/11 14:16:25;;;;;;;;;28.50;25.75;;;;;;;;5080768;27;51559;-57
2022/12/11 14:19:15;;;;;;;;;27.50;24.75;;;;;;;;5080733;27;51126;-56
2022/12/11 14:22:01;;;;;;;;;27.50;24.25;;;;;;;;5080815;27;51136;-55
2022/12/11 14:24:53;;;;;;;;;33.75;27.25;;;;;;;;5080685;27;51106;-54
2022/12/11 14:27:46;;;;;;;;;19.25;18.50;;;;;;;;5081199;27;51077;-56
2022/12/11 14:30:32;;;;;;;;;30.00;23.50;;;;;;;;5080778;27;51589;-54
2022/12/11 14:33:18;;;;;;;;;27.25;23.50;;;;;;;;5069134;27;51082;-54
2022/12/11 14:36:03;;;;;;;;;32.25;26.75;;;;;;;;5060111;28;51206;-55
2022/12/11 14:38:50;;;;;;;;;25.25;23.00;;;;;;;;5060536;28;51164;-56
2022/12/11 14:42:15;;;;;;;;;25.25;22.50;;;;;;;;5017425;28;51644;-56
2022/12/11 14:45:06;;;;;;;;;30.50;26.00;;;;;;;;5017369;28;51625;-56
2022/12/11 14:47:51;;;;;;;;;26.25;22.75;;;;;;;;5017442;28;51519;-56
2022/12/11 14:50:38;;;;;;;;;29.50;24.25;;;;;;;;5016848;28;51125;-56
2022/12/11 14:53:28;;;;;;;;;26.75;25.00;;;;;;;;5017530;28;51289;-56
2022/12/11 14:56:17;;;;;;;;;22.25;19.00;;;;;;;;5016872;28;51492;-56
2022/12/11 14:59:05;;;;;;;;;30.25;26.50;;;;;;;;5017101;28;51583;-54
2022/12/11 15:01:56;;;;;;;;;28.00;24.00;;;;;;;;5017164;28;51168;-55
2022/12/11 15:04:40;;;;;;;;;29.25;25.50;;;;;;;;5017620;28;51173;-55
2022/12/11 15:07:25;;;;;;;;;24.50;23.25;;;;;;;;5017074;28;51472;-55
2022/12/11 15:13:22;;;;;;;;;17.75;13.00;;;;;;;;5017160;28;51078;-55
2022/12/11 15:16:07;;;;;;;;;24.00;22.50;;;;;;;;5016785;28;51083;-54
2022/12/11 15:18:53;;;;;;;;;26.00;22.00;;;;;;;;5059933;28;51000;-57
2022/12/11 15:21:37;;;;;;;;;24.50;18.50;;;;;;;;5059568;28;51242;-56
2022/12/11 15:24:29;;;;;;;;;25.50;20.50;;;;;;;;5059644;28;51183;-56
2022/12/11 15:27:36;;;;;;;;;23.00;20.00;;;;;;;;5059338;28;51205;-57
2022/12/11 15:30:27;;;;;;;;;23.75;21.75;;;;;;;;5059504;28;51057;-57
2022/12/11 15:33:11;;;;;;;;;28.75;24.50;;;;;;;;5059523;28;51117;-57
2022/12/11 15:36:03;;;;;;;;;28.50;23.50;;;;;;;;5053427;28;51197;-55
2022/12/11 15:38:47;;;;;;;;;31.00;25.75;;;;;;;;5064550;27;51408;-55
2022/12/11 15:41:33;;;;;;;;;27.75;22.00;;;;;;;;5059194;28;51126;-56
2022/12/11 15:44:20;;;;;;;;;26.75;23.00;;;;;;;;5059551;28;51112;-54
2022/12/11 15:47:14;;;;;;;;;23.00;22.00;;;;;;;;5059349;28;51026;-55
2022/12/11 15:50:00;;;;;;;;;30.50;24.25;;;;;;;;5059510;28;51233;-56
2022/12/11 15:52:45;;;;;;;;;25.50;22.00;;;;;;;;5059276;28;51115;-55
2022/12/11 15:55:33;;;;;;;;;25.75;23.25;;;;;;;;5078251;28;51000;-56
2022/12/11 15:58:18;;;;;;;;;26.50;23.75;;;;;;;;5079188;28;51090;-56
2022/12/11 16:01:03;;;;;;;;;30.75;24.75;;;;;;;;5081437;27;51038;-54
2022/12/11 16:03:49;;;;;;;;;25.75;22.25;;;;;;;;5083669;27;51098;-56
2022/12/11 16:06:34;;;;;;;;;32.75;26.50;;;;;;;;5083206;27;51081;-55
2022/12/11 16:09:18;;;;;;;;;25.00;22.50;;;;;;;;5083654;27;51075;-55
2022/12/11 16:12:02;;;;;;;;;29.00;22.50;;;;;;;;5083306;27;51524;-56
2022/12/11 16:14:47;;;;;;;;;27.25;23.25;;;;;;;;5083533;27;51494;-53
2022/12/11 16:17:31;;;;;;;;;28.75;25.75;;;;;;;;5082786;27;51020;-54
2022/12/11 16:20:16;;;;;;;;;24.75;20.25;;;;;;;;5083506;27;51127;-55
2022/12/11 16:23:00;;;;;;;;;27.75;22.00;;;;;;;;5083007;27;51365;-54